Time;durP1;ratioP1;P1;durP2;ratioP2;P2;SDS_P1;SDS_P2;PMS_P1;PMS_P2;Temp;Humidity;BMP_temperature;BMP_pressure;BME280_temperature;BME280_humidity;BME280_pressure;Samples;Min_cycle;Max_cycle;Signal;HPM_P1;HPM_P2
2023/04/18 00:00:17;;;;;;;2.03;1.63;;;;;;;10.45;91.81;101016.78;5029053;28;20087;-86
2023/04/18 00:02:42;;;;;;;3.65;2.47;;;;;;;10.46;91.00;101015.84;5012634;28;20498;-85
2023/04/18 00:05:08;;;;;;;3.10;2.65;;;;;;;10.44;91.08;101025.44;5014625;28;20064;-85
2023/04/18 00:07:34;;;;;;;3.97;2.55;;;;;;;10.38;91.19;101023.09;5016132;28;20477;-86
2023/04/18 00:10:01;;;;;;;7.18;2.20;;;;;;;10.36;91.58;101026.66;5015971;28;20060;-84
2023/04/18 00:12:26;;;;;;;6.03;2.42;;;;;;;10.44;91.71;101033.19;5032656;28;20724;-84
2023/04/18 00:14:52;;;;;;;2.53;1.85;;;;;;;10.27;91.20;101020.13;5032516;28;20033;-85
2023/04/18 00:17:19;;;;;;;5.50;2.75;;;;;;;10.30;91.34;101015.66;5032267;28;20088;-86
2023/04/18 00:19:45;;;;;;;2.25;1.67;;;;;;;10.44;91.03;101040.13;5016247;28;20029;-85
2023/04/18 00:22:10;;;;;;;2.85;2.03;;;;;;;10.40;90.92;101044.56;5016031;28;20505;-85
2023/04/18 00:24:36;;;;;;;2.65;2.15;;;;;;;10.33;90.29;101040.56;5015612;28;20057;-85
2023/04/18 00:27:02;;;;;;;2.65;1.77;;;;;;;10.23;90.16;101034.94;5015848;28;20025;-85
2023/04/18 00:29:30;;;;;;;3.80;3.00;;;;;;;10.35;90.23;101046.50;5015939;28;20044;-85
2023/04/18 00:31:56;;;;;;;2.25;1.83;;;;;;;10.23;90.59;101018.56;5015803;28;20441;-86
2023/04/18 00:34:21;;;;;;;3.42;1.70;;;;;;;10.21;90.43;101033.25;5015558;28;20033;-85
2023/04/18 00:36:47;;;;;;;3.60;2.17;;;;;;;10.28;89.36;101034.72;5032139;28;20028;-85
2023/04/18 00:39:12;;;;;;;5.35;2.95;;;;;;;10.13;89.17;101025.84;5031829;28;20482;-85
2023/04/18 00:41:37;;;;;;;1.38;1.13;;;;;;;10.24;88.29;101040.94;5015561;28;20387;-85
2023/04/18 00:44:03;;;;;;;5.07;3.47;;;;;;;10.06;88.14;101012.31;5015384;28;20044;-84
2023/04/18 00:46:28;;;;;;;5.43;3.72;;;;;;;10.12;87.68;101036.22;5015486;28;20032;-84
2023/04/18 00:48:54;;;;;;;4.60;2.58;;;;;;;10.20;88.36;101045.34;5031879;28;20063;-84
2023/04/18 00:51:20;;;;;;;4.05;2.80;;;;;;;10.06;87.86;101020.06;5015672;28;20037;-84
2023/04/18 00:53:46;;;;;;;5.22;2.67;;;;;;;10.14;88.22;101043.03;5015075;28;20502;-85
2023/04/18 00:56:11;;;;;;;4.65;3.30;;;;;;;9.99;87.74;101021.19;5015295;28;20060;-84
2023/04/18 00:58:39;;;;;;;3.97;2.70;;;;;;;9.98;88.27;101029.84;4998847;28;20033;-85
2023/04/18 01:01:04;;;;;;;3.70;2.30;;;;;;;10.09;88.16;101046.69;5015843;28;20041;-85
2023/04/18 01:03:31;;;;;;;5.28;3.17;;;;;;;10.05;88.00;101040.81;5015054;28;20056;-85
2023/04/18 01:05:57;;;;;;;4.07;2.50;;;;;;;10.05;87.67;101043.38;5015015;28;20033;-85
2023/04/18 01:08:22;;;;;;;3.90;3.10;;;;;;;9.76;87.48;100990.28;5014620;28;20025;-84
2023/04/18 01:10:48;;;;;;;6.70;4.53;;;;;;;9.94;87.67;101025.72;5015000;28;20025;-85
2023/04/18 01:13:16;;;;;;;5.05;2.95;;;;;;;10.05;87.63;101033.88;5032560;28;20030;-85
2023/04/18 01:15:43;;;;;;;4.50;2.90;;;;;;;10.07;86.83;101041.56;5030455;28;20033;-85
2023/04/18 01:18:09;;;;;;;4.93;2.83;;;;;;;10.03;86.87;101040.88;5014660;28;20107;-85
2023/04/18 01:20:37;;;;;;;5.15;3.58;;;;;;;10.13;86.39;101053.41;5015144;28;20029;-85
2023/04/18 01:23:02;;;;;;;6.82;3.10;;;;;;;10.10;86.81;101051.78;5014617;28;20037;-85
2023/04/18 01:25:28;;;;;;;4.72;3.22;;;;;;;9.94;86.60;101033.47;5014762;28;20482;-85
2023/04/18 01:27:53;;;;;;;4.88;2.55;;;;;;;10.03;87.13;101042.63;5014501;28;20033;-84
2023/04/18 01:30:19;;;;;;;5.13;3.25;;;;;;;9.99;87.28;101021.19;5014642;28;20033;-85
2023/04/18 01:32:45;;;;;;;5.45;3.38;;;;;;;10.17;87.95;101049.81;5014614;28;20049;-85
2023/04/18 01:35:10;;;;;;;5.82;3.40;;;;;;;10.20;88.86;101047.09;5014586;28;20061;-84
2023/04/18 01:37:36;;;;;;;16.45;3.42;;;;;;;10.19;88.81;101043.66;5030722;28;20033;-85
2023/04/18 01:40:01;;;;;;;5.60;3.22;;;;;;;10.29;88.32;101045.00;5030944;28;20540;-85
2023/04/18 01:42:27;;;;;;;4.63;3.22;;;;;;;10.33;88.06;101056.91;5014432;28;20040;-84
2023/04/18 01:44:52;;;;;;;6.05;4.00;;;;;;;10.25;88.09;101046.03;5014354;28;20033;-86
2023/04/18 01:47:17;;;;;;;4.68;2.92;;;;;;;10.19;88.67;101030.72;5014101;28;20033;-85
2023/04/18 01:49:46;;;;;;;6.43;4.43;;;;;;;10.39;87.97;101052.38;5014312;28;20038;-84
2023/04/18 01:52:13;;;;;;;3.03;2.30;;;;;;;10.40;88.68;101054.91;5014452;28;20104;-85
2023/04/18 01:54:39;;;;;;;3.72;2.88;;;;;;;10.33;88.81;101046.56;4997903;28;20064;-85
2023/04/18 01:57:04;;;;;;;4.93;3.97;;;;;;;10.28;87.63;101048.50;5013981;28;20026;-85
2023/04/18 01:59:30;;;;;;;5.28;3.42;;;;;;;10.16;88.64;101027.44;5030364;28;20033;-85
2023/04/18 02:01:55;;;;;;;5.28;3.60;;;;;;;10.23;88.70;101052.19;5014066;28;20044;-85
2023/04/18 02:04:21;;;;;;;3.80;3.13;;;;;;;10.15;88.83;101059.38;5030177;28;20482;-86
2023/04/18 02:06:46;;;;;;;4.88;2.95;;;;;;;9.95;88.95;101014.47;5013571;28;20030;-86
2023/04/18 02:09:11;;;;;;;5.20;3.65;;;;;;;10.06;89.26;101047.66;5030294;28;20033;-86
2023/04/18 02:11:37;;;;;;;6.35;3.85;;;;;;;10.10;89.04;101061.28;5030088;28;20486;-85
2023/04/18 02:14:02;;;;;;;5.60;3.08;;;;;;;9.85;88.65;101049.34;5029962;28;20449;-86
2023/04/18 02:16:28;;;;;;;2.95;2.45;;;;;;;9.99;89.90;101065.13;5029951;28;20045;-85
2023/04/18 02:18:53;;;;;;;5.68;3.17;;;;;;;9.99;89.84;101051.38;5013601;28;20033;-86
2023/04/18 02:21:20;;;;;;;3.17;2.88;;;;;;;10.05;89.58;101062.31;5030003;28;20040;-85
2023/04/18 02:23:45;;;;;;;6.65;3.17;;;;;;;10.04;89.78;101059.81;5031300;28;20029;-85
2023/04/18 02:26:11;;;;;;;6.35;3.42;;;;;;;9.96;90.17;101051.50;5013613;28;20033;-85
2023/04/18 02:28:37;;;;;;;4.38;3.05;;;;;;;9.92;90.13;101055.94;5013245;28;20479;-85
2023/04/18 02:31:03;;;;;;;5.20;3.25;;;;;;;10.03;90.63;101068.47;5013732;28;20057;-85
2023/04/18 02:33:29;;;;;;;6.57;4.20;;;;;;;9.97;90.25;101056.63;5013535;28;20036;-86
2023/04/18 02:35:54;;;;;;;4.18;3.17;;;;;;;9.92;89.81;101047.34;5012927;28;20479;-85
2023/04/18 02:38:20;;;;;;;6.82;3.75;;;;;;;10.03;89.84;101065.88;5031096;28;20387;-85
2023/04/18 02:40:45;;;;;;;3.15;2.50;;;;;;;9.99;89.83;101056.53;4997100;28;20022;-86
2023/04/18 02:43:11;;;;;;;4.55;2.92;;;;;;;9.88;89.37;101032.88;5013133;28;20079;-84
2023/04/18 02:45:36;;;;;;;3.88;2.67;;;;;;;10.11;89.75;101070.72;5029736;28;20034;-85
2023/04/18 02:48:02;;;;;;;3.38;2.15;;;;;;;10.04;89.72;101073.56;4996944;28;20044;-85
2023/04/18 02:50:28;;;;;;;12.20;4.03;;;;;;;9.92;89.59;101040.44;5012691;28;20037;-85
2023/04/18 02:52:54;;;;;;;4.68;3.05;;;;;;;9.94;89.74;101049.00;5029764;28;20108;-85
2023/04/18 02:55:20;;;;;;;4.15;3.33;;;;;;;10.08;89.42;101056.19;5013283;28;20495;-90
2023/04/18 02:57:46;;;;;;;7.95;3.55;;;;;;;9.98;88.55;101063.47;5014397;28;20110;-91
2023/04/18 03:00:12;;;;;;;5.18;3.45;;;;;;;10.00;88.64;101066.81;5014218;28;20037;-89
2023/04/18 03:02:37;;;;;;;3.72;2.45;;;;;;;9.85;89.07;101031.25;5014159;28;20032;-89
2023/04/18 03:05:04;;;;;;;3.45;2.53;;;;;;;10.01;88.65;101055.56;5013002;28;20034;-85
2023/04/18 03:07:29;;;;;;;6.03;3.80;;;;;;;9.97;88.83;101069.53;5013280;28;20482;-84
2023/04/18 03:09:55;;;;;;;4.40;2.58;;;;;;;9.86;89.47;101053.63;5013382;28;20040;-85
2023/04/18 03:12:21;;;;;;;5.82;5.13;;;;;;;9.94;89.57;101069.66;5029553;28;20140;-85
2023/04/18 03:14:46;;;;;;;6.35;3.47;;;;;;;9.94;90.03;101054.16;5012653;28;20041;-85
2023/04/18 03:17:12;;;;;;;6.25;4.30;;;;;;;9.95;90.18;101057.59;5029237;28;20041;-85
2023/04/18 03:19:37;;;;;;;5.68;3.42;;;;;;;9.96;91.02;101064.44;5029101;28;20087;-85
2023/04/18 03:22:02;;;;;;;9.80;4.35;;;;;;;9.98;91.16;101070.38;5012900;28;20037;-85
2023/04/18 03:24:28;;;;;;;4.85;3.15;;;;;;;9.92;91.21;101061.09;5029697;28;20442;-85
2023/04/18 03:26:53;;;;;;;5.25;4.40;;;;;;;9.70;91.45;101040.44;5027242;28;20029;-85
2023/04/18 03:29:19;;;;;;;5.15;3.42;;;;;;;9.87;91.61;101051.88;5029456;28;20079;-87
2023/04/18 03:31:44;;;;;;;4.45;3.22;;;;;;;9.98;91.36;101075.53;5012790;28;20025;-88
2023/04/18 03:34:10;;;;;;;3.83;3.08;;;;;;;10.03;91.81;101078.81;5012832;28;20025;-88
2023/04/18 03:36:35;;;;;;;4.05;2.78;;;;;;;9.95;92.12;101070.50;5029533;28;20034;-86
2023/04/18 03:39:01;;;;;;;7.60;5.03;;;;;;;10.08;91.95;101084.63;5012483;28;20030;-88
2023/04/18 03:41:27;;;;;;;5.45;3.92;;;;;;;10.11;91.46;101086.22;5016943;28;20521;-86
2023/04/18 03:43:52;;;;;;;6.32;4.10;;;;;;;10.03;91.58;101073.63;5033541;28;20037;-88
2023/04/18 03:46:18;;;;;;;15.27;7.53;;;;;;;10.01;91.46;101073.66;5016934;28;20033;-87
2023/04/18 03:48:43;;;;;;;6.97;4.60;;;;;;;10.02;91.44;101077.09;5033237;28;20474;-88
2023/04/18 03:51:09;;;;;;;11.88;6.38;;;;;;;10.10;91.48;101081.97;5034044;28;20033;-89
2023/04/18 03:53:35;;;;;;;18.42;8.13;;;;;;;9.87;90.85;101052.72;5034181;28;20025;-88
2023/04/18 03:56:00;;;;;;;14.30;7.43;;;;;;;10.13;90.70;101089.59;5032730;28;20025;-85
2023/04/18 03:58:26;;;;;;;11.82;7.22;;;;;;;9.99;90.70;101072.91;5015997;28;20033;-85
2023/04/18 04:00:51;;;;;;;8.27;5.57;;;;;;;10.08;90.20;101092.38;5016055;28;20033;-83
2023/04/18 04:03:17;;;;;;;6.75;4.30;;;;;;;10.03;89.80;101082.22;4999240;28;20112;-86
2023/04/18 04:05:42;;;;;;;14.65;7.03;;;;;;;10.17;89.66;101101.50;5015874;28;20026;-85
2023/04/18 04:08:08;;;;;;;10.15;5.20;;;;;;;10.15;90.45;101108.50;5032329;28;20040;-88
2023/04/18 04:10:33;;;;;;;8.57;5.15;;;;;;;9.97;91.16;101074.72;5016022;28;20533;-84
2023/04/18 04:12:59;;;;;;;15.65;8.00;;;;;;;10.18;90.88;101104.03;5032272;28;20026;-83
2023/04/18 04:15:24;;;;;;;13.05;8.13;;;;;;;10.13;90.50;101099.94;5014844;28;20032;-85
2023/04/18 04:17:50;;;;;;;9.65;4.13;;;;;;;10.16;89.98;101105.84;5011997;28;20037;-92
2023/04/18 04:20:21;;;;;;;5.75;3.45;;;;;;;10.17;90.46;101111.84;5029518;28;20117;-88
2023/04/18 04:22:47;;;;;;;4.67;3.40;;;;;;;10.20;90.15;101122.06;5014454;28;20030;-86
2023/04/18 04:25:12;;;;;;;5.50;3.53;;;;;;;10.12;89.92;101106.84;5029265;28;20061;-83
2023/04/18 04:27:38;;;;;;;6.68;3.58;;;;;;;10.24;89.18;101115.94;5018561;28;20096;-85
2023/04/18 04:30:05;;;;;;;6.35;3.72;;;;;;;10.14;89.42;101092.16;5028631;28;20037;-83
2023/04/18 04:32:31;;;;;;;7.72;4.85;;;;;;;10.28;89.42;101131.25;5028204;28;20052;-85
2023/04/18 04:34:57;;;;;;;5.40;3.83;;;;;;;10.21;89.91;101123.75;5027168;28;20033;-86
2023/04/18 04:37:23;;;;;;;11.00;6.90;;;;;;;10.16;90.05;101130.84;5028790;28;20025;-87
2023/04/18 04:39:48;;;;;;;9.63;6.97;;;;;;;10.02;90.28;101092.59;5028662;28;20108;-83
2023/04/18 04:42:14;;;;;;;7.88;5.03;;;;;;;10.12;90.29;101118.94;5028738;28;20096;-87
2023/04/18 04:44:42;;;;;;;9.85;5.47;;;;;;;10.23;90.56;101127.19;5028573;28;20030;-84
2023/04/18 04:47:08;;;;;;;13.85;8.00;;;;;;;10.23;90.65;101133.19;5027322;28;20030;-86
2023/04/18 04:49:33;;;;;;;11.93;4.53;;;;;;;9.98;89.47;101096.22;5011755;28;20058;-87
2023/04/18 04:51:59;;;;;;;8.77;3.88;;;;;;;10.22;89.83;101146.16;5028018;28;20038;-82
2023/04/18 04:54:25;;;;;;;8.68;5.15;;;;;;;10.21;90.57;101140.09;5027452;28;20038;-81
2023/04/18 04:56:50;;;;;;;9.43;6.80;;;;;;;10.00;91.33;101103.00;5030092;28;20029;-91
2023/04/18 04:59:16;;;;;;;7.07;4.65;;;;;;;10.29;91.33;101142.44;5045273;23;20061;-84
2023/04/18 05:01:41;;;;;;;8.57;4.72;;;;;;;10.28;91.10;101145.91;5047860;28;20030;-84
2023/04/18 05:04:07;;;;;;;4.68;4.00;;;;;;;10.25;91.74;101146.06;5032234;28;20029;-87
2023/04/18 05:06:32;;;;;;;8.13;5.50;;;;;;;10.16;90.88;101120.53;5033514;28;20026;-92
2023/04/18 05:08:59;;;;;;;5.95;4.63;;;;;;;10.17;91.06;101141.13;5030989;28;20099;-86
2023/04/18 05:11:25;;;;;;;12.68;6.25;;;;;;;10.29;90.59;101147.59;5030894;28;20022;-82
2023/04/18 05:13:50;;;;;;;5.10;4.35;;;;;;;10.29;90.45;101157.94;5032507;28;20029;-84
2023/04/18 05:16:16;;;;;;;11.02;5.28;;;;;;;10.30;90.93;101155.28;5035119;28;20474;-90
2023/04/18 05:18:41;;;;;;;11.80;5.50;;;;;;;10.34;90.60;101153.44;5030509;28;20628;-86
2023/04/18 05:21:07;;;;;;;5.75;3.42;;;;;;;10.19;90.73;101131.56;5046418;28;20399;-82
2023/04/18 05:23:35;;;;;;;6.07;4.38;;;;;;;10.21;90.70;101137.50;5040272;28;20029;-88
2023/04/18 05:26:02;;;;;;;7.53;4.38;;;;;;;10.16;91.11;101125.69;5030460;28;20021;-85
2023/04/18 05:28:27;;;;;;;4.88;3.72;;;;;;;10.31;91.27;101153.53;5052271;28;20028;-86
2023/04/18 05:30:59;;;;;;;7.88;5.78;;;;;;;10.35;91.27;101152.53;5051721;28;20083;-84
2023/04/18 05:33:28;;;;;;;7.40;4.97;;;;;;;10.21;90.50;101124.59;5066351;28;20021;-90
2023/04/18 05:35:54;;;;;;;8.02;4.60;;;;;;;10.32;90.83;101142.28;5051876;28;20052;-83
2023/04/18 05:38:20;;;;;;;6.32;4.32;;;;;;;10.32;90.93;101137.13;5047182;28;20113;-86
2023/04/18 05:40:45;;;;;;;7.93;5.43;;;;;;;10.41;90.52;101157.44;5030435;28;20032;-92
2023/04/18 05:43:10;;;;;;;7.95;4.97;;;;;;;10.36;91.03;101156.81;5060750;28;20032;-88
2023/04/18 05:45:36;;;;;;;5.32;4.10;;;;;;;10.32;90.81;101147.47;5051712;28;20493;-83
2023/04/18 05:48:01;;;;;;;5.75;4.80;;;;;;;10.40;90.67;101160.94;5041853;28;20386;-87
2023/04/18 05:50:27;;;;;;;9.65;5.88;;;;;;;10.42;90.68;101166.94;5053614;28;20029;-88
2023/04/18 05:52:52;;;;;;;6.32;4.35;;;;;;;10.22;90.54;101120.28;5049805;28;20044;-88
2023/04/18 05:55:18;;;;;;;10.52;5.57;;;;;;;10.38;90.10;101160.16;5050158;28;20044;-93
2023/04/18 05:57:43;;;;;;;8.10;5.40;;;;;;;10.37;90.30;101173.16;5031892;28;20026;-89
2023/04/18 06:00:10;;;;;;;6.47;3.95;;;;;;;10.16;90.58;101142.03;5016814;28;20049;-87
2023/04/18 06:02:36;;;;;;;6.65;4.63;;;;;;;10.24;90.93;101141.78;5042652;28;20032;-85
2023/04/18 06:05:01;;;;;;;7.20;5.35;;;;;;;10.26;90.91;101150.31;5013267;28;20034;-85
2023/04/18 06:07:27;;;;;;;6.38;4.20;;;;;;;10.36;91.15;101169.75;5022366;28;20053;-92
2023/04/18 06:09:52;;;;;;;8.40;6.03;;;;;;;10.41;92.37;101156.63;5029521;28;20026;-84
2023/04/18 06:12:18;;;;;;;5.93;4.07;;;;;;;10.41;90.92;101167.78;5030286;28;20033;-89
2023/04/18 06:14:44;;;;;;;6.15;4.40;;;;;;;10.42;90.68;101156.56;5032244;28;20057;-82
2023/04/18 06:17:11;;;;;;;6.53;4.55;;;;;;;10.54;90.19;101173.34;5034458;28;20033;-86
2023/04/18 06:19:38;;;;;;;7.90;4.40;;;;;;;10.36;89.50;101141.28;5044304;28;20028;-82
2023/04/18 06:22:03;;;;;;;8.52;5.00;;;;;;;10.41;90.19;101157.44;5052136;28;20125;-89
2023/04/18 06:24:29;;;;;;;6.22;4.25;;;;;;;10.49;90.96;101170.94;5030761;28;20034;-87
2023/04/18 06:26:56;;;;;;;13.90;9.50;;;;;;;10.51;90.96;101178.63;5029229;28;20465;-89
2023/04/18 06:29:22;;;;;;;9.40;6.25;;;;;;;10.57;90.76;101174.06;5026720;28;20037;-84
2023/04/18 06:31:49;;;;;;;6.80;4.97;;;;;;;10.48;89.98;101158.91;5030104;28;20033;-85
2023/04/18 06:34:15;;;;;;;6.25;3.88;;;;;;;10.45;89.74;101174.56;5013258;28;20458;-92
2023/04/18 06:36:40;;;;;;;8.82;5.53;;;;;;;10.55;90.45;101175.03;5029595;28;20430;-88
2023/04/18 06:39:06;;;;;;;7.35;5.18;;;;;;;10.48;90.47;101152.88;5029303;28;20033;-87
2023/04/18 06:41:31;;;;;;;9.45;5.45;;;;;;;10.47;91.27;101151.22;5013158;28;20056;-89
2023/04/18 06:43:57;;;;;;;8.18;5.07;;;;;;;10.73;91.00;101176.03;5013222;28;20029;-94
2023/04/18 06:46:22;;;;;;;8.68;6.47;;;;;;;10.79;88.73;101180.94;5047834;28;20030;-93
2023/04/18 06:48:48;;;;;;;13.48;5.55;;;;;;;10.46;88.43;101139.19;5032750;28;20037;-93
2023/04/18 06:51:14;;;;;;;6.82;4.40;;;;;;;10.65;88.47;101176.34;5029570;28;20025;-93
2023/04/18 06:53:39;;;;;;;7.50;4.30;;;;;;;10.60;89.05;101179.09;5046098;28;20613;-90
2023/04/18 06:56:05;;;;;;;8.90;5.55;;;;;;;10.45;89.85;101151.28;5014767;28;20035;-89
2023/04/18 06:58:30;;;;;;;6.88;5.50;;;;;;;10.70;89.25;101178.72;5060502;28;20532;-92
2023/04/18 07:00:56;;;;;;;6.72;4.38;;;;;;;10.74;90.00;101177.72;5030400;28;20029;-89
2023/04/18 07:03:21;;;;;;;21.30;16.65;;;;;;;10.62;90.57;101172.16;5029056;28;20033;-87
2023/04/18 07:05:46;;;;;;;9.40;6.68;;;;;;;10.60;89.36;101170.50;5058271;28;20478;-94
2023/04/18 07:08:12;;;;;;;7.63;4.22;;;;;;;10.71;88.43;101190.75;5007045;28;20386;-87
2023/04/18 07:10:37;;;;;;;6.70;4.43;;;;;;;10.74;87.78;101195.84;5029088;28;20033;-89
2023/04/18 07:13:03;;;;;;;55.60;28.73;;;;;;;10.67;87.86;101184.03;5028390;28;20029;-92
2023/04/18 07:15:29;;;;;;;9.18;5.35;;;;;;;10.69;87.52;101197.75;5034707;28;20033;-90
2023/04/18 07:17:54;;;;;;;5.85;3.90;;;;;;;10.53;87.55;101174.25;5035838;28;20030;-86
2023/04/18 07:20:20;;;;;;;6.20;3.97;;;;;;;10.67;88.20;101190.06;5053027;28;20035;-90
2023/04/18 07:22:46;;;;;;;5.90;3.63;;;;;;;10.49;87.90;101167.50;5041912;28;20052;-92
2023/04/18 07:25:12;;;;;;;5.35;3.53;;;;;;;10.68;86.54;101203.84;5037780;28;20030;-85
2023/04/18 07:27:37;;;;;;;7.68;4.18;;;;;;;10.58;87.63;101200.78;5066075;28;20111;-90
2023/04/18 07:30:03;;;;;;;5.53;4.15;;;;;;;10.63;89.21;101209.22;5021348;28;20398;-94
2023/04/18 07:32:29;;;;;;;7.45;4.22;;;;;;;10.63;87.63;101204.03;5049192;28;20032;-87
2023/04/18 07:34:56;;;;;;;8.40;5.30;;;;;;;10.68;88.07;101214.19;5032783;28;20037;-88
2023/04/18 07:37:21;;;;;;;6.60;4.43;;;;;;;10.66;87.80;101213.41;5028941;28;20071;-86
2023/04/18 07:39:47;;;;;;;6.22;5.03;;;;;;;10.58;88.43;101193.00;5051524;28;20489;-84
2023/04/18 07:42:13;;;;;;;8.63;4.93;;;;;;;10.65;87.96;101212.56;5031518;28;20382;-94
2023/04/18 07:44:38;;;;;;;7.30;4.57;;;;;;;10.57;87.50;101207.69;5035419;28;20119;-93
2023/04/18 07:47:11;;;;;;;5.90;3.47;;;;;;;10.61;87.09;101217.00;5033996;28;20026;-91
2023/04/18 07:49:37;;;;;;;5.30;4.13;;;;;;;10.51;88.00;101213.09;5048301;28;20106;-90
2023/04/18 07:52:02;;;;;;;8.07;3.92;;;;;;;10.37;88.09;101183.50;5035319;28;20052;-85
2023/04/18 07:54:28;;;;;;;4.85;3.78;;;;;;;10.46;88.76;101209.88;5051779;28;20036;-94
2023/04/18 07:56:53;;;;;;;5.45;3.75;;;;;;;10.43;88.42;101193.63;5029701;28;20030;-86
2023/04/18 07:59:19;;;;;;;5.78;3.95;;;;;;;10.51;87.62;101217.44;5026307;28;20046;-91
2023/04/18 08:01:44;;;;;;;4.45;3.75;;;;;;;10.67;87.75;101231.47;5032632;28;20065;-89
2023/04/18 08:04:10;;;;;;;6.05;4.75;;;;;;;10.60;88.42;101225.66;5048446;28;20029;-90
2023/04/18 08:06:36;;;;;;;6.72;4.20;;;;;;;10.66;88.67;101234.09;5031502;28;20041;-88
2023/04/18 08:09:04;;;;;;;7.10;5.60;;;;;;;10.57;88.69;101230.97;5019161;28;20095;-83
2023/04/18 08:11:30;;;;;;;7.78;4.78;;;;;;;10.55;88.33;101212.09;5022975;28;20579;-86
2023/04/18 08:13:56;;;;;;;6.43;4.32;;;;;;;10.62;88.10;101234.25;5057913;28;20107;-84
2023/04/18 08:16:21;;;;;;;6.47;5.22;;;;;;;10.66;88.33;101244.47;5042659;28;20033;-94
2023/04/18 08:18:47;;;;;;;6.40;4.38;;;;;;;10.70;86.53;101246.00;5022956;28;20491;-88
2023/04/18 08:21:12;;;;;;;102.90;61.58;;;;;;;10.62;86.78;101242.00;5021956;28;20513;-90
2023/04/18 08:23:38;;;;;;;16.80;9.23;;;;;;;10.63;86.97;101245.44;5022755;28;20029;-93
2023/04/18 08:26:03;;;;;;;8.20;4.03;;;;;;;10.50;88.32;101226.94;5052098;28;20465;-87
2023/04/18 08:28:29;;;;;;;4.10;3.53;;;;;;;10.54;88.93;101245.78;5031738;28;20053;-87
2023/04/18 08:30:55;;;;;;;5.47;3.80;;;;;;;10.51;89.03;101231.22;5033370;28;20592;-87
2023/04/18 08:33:22;;;;;;;5.82;4.15;;;;;;;10.59;89.69;101247.28;5045766;28;20029;-90
2023/04/18 08:35:47;;;;;;;5.63;4.20;;;;;;;10.67;90.29;101248.72;5027626;28;20080;-85
2023/04/18 08:38:13;;;;;;;6.38;4.55;;;;;;;10.68;89.53;101247.81;5043445;28;20373;-87
2023/04/18 08:40:39;;;;;;;7.80;4.90;;;;;;;10.65;89.31;101253.97;5043521;28;20033;-89
2023/04/18 08:43:08;;;;;;;7.80;4.05;;;;;;;10.60;89.57;101246.38;5039307;28;20532;-90
2023/04/18 08:45:33;;;;;;;7.88;5.38;;;;;;;10.59;88.63;101255.03;5031834;28;20434;-88
2023/04/18 08:48:00;;;;;;;10.68;6.20;;;;;;;10.63;88.83;101250.59;5029448;28;20025;-87
2023/04/18 08:50:26;;;;;;;5.93;4.38;;;;;;;10.57;88.03;101249.09;5049389;28;20463;-87
2023/04/18 08:52:51;;;;;;;5.07;4.20;;;;;;;10.47;87.15;101233.97;5030548;28;20117;-89
2023/04/18 08:55:18;;;;;;;7.85;4.20;;;;;;;10.58;87.75;101258.53;5029728;28;20034;-89
2023/04/18 08:57:43;;;;;;;6.50;4.93;;;;;;;10.49;88.76;101248.53;5046528;28;20032;-82
2023/04/18 09:00:10;;;;;;;5.72;3.17;;;;;;;10.48;87.28;101246.84;5049236;28;20072;-86
2023/04/18 09:02:43;;;;;;;7.45;4.20;;;;;;;10.44;87.27;101234.94;5044068;28;20422;-84
2023/04/18 09:05:13;;;;;;;4.25;2.65;;;;;;;10.55;87.82;101256.06;5041079;28;20029;-84
2023/04/18 09:07:38;;;;;;;5.95;3.92;;;;;;;10.25;87.48;101213.28;5047014;28;20034;-86
2023/04/18 09:10:04;;;;;;;4.22;3.67;;;;;;;10.50;87.57;101249.38;5020070;28;20087;-86
2023/04/18 09:12:31;;;;;;;6.47;3.33;;;;;;;10.53;87.50;101255.28;5033021;28;20072;-91
2023/04/18 09:15:22;;;;;;;4.32;3.15;;;;;;;10.55;88.01;101263.00;5035838;28;20084;-85
2023/04/18 09:17:49;;;;;;;6.45;3.78;;;;;;;10.15;88.07;101201.56;5016126;28;20065;-88
2023/04/18 09:20:34;;;;;;;4.00;3.17;;;;;;;10.38;88.11;101253.28;5017766;28;20040;-91
2023/04/18 09:23:09;;;;;;;6.10;3.88;;;;;;;10.33;88.26;101231.94;5047592;28;20080;-84
2023/04/18 09:25:53;;;;;;;6.57;3.65;;;;;;;10.31;87.35;101237.16;5033981;28;20034;-94
2023/04/18 09:28:31;;;;;;;5.03;3.58;;;;;;;10.33;86.91;101245.72;5041165;28;20029;-88
2023/04/18 09:31:11;;;;;;;6.15;3.47;;;;;;;10.46;87.40;101253.84;5031494;28;20025;-86
2023/04/18 09:33:37;;;;;;;4.43;3.15;;;;;;;10.49;87.15;101258.88;5027427;28;20037;-87
2023/04/18 09:36:22;;;;;;;8.32;3.17;;;;;;;10.64;87.48;101265.22;5012518;28;20524;-88
2023/04/18 09:38:48;;;;;;;4.45;2.55;;;;;;;10.52;86.79;101256.19;5046943;28;20022;-90
2023/04/18 09:41:16;;;;;;;5.35;3.97;;;;;;;10.52;86.37;101258.78;5041643;28;20029;-85
2023/04/18 09:43:42;;;;;;;5.47;3.47;;;;;;;10.56;86.67;101268.09;5031096;28;20608;-88
2023/04/18 09:46:08;;;;;;;9.20;4.25;;;;;;;10.30;86.21;101232.03;5031965;28;20521;-88
2023/04/18 09:48:34;;;;;;;4.00;3.05;;;;;;;10.36;86.29;101229.22;5028640;28;20080;-89
2023/04/18 09:51:02;;;;;;;5.50;3.78;;;;;;;10.67;86.70;101266.84;5031465;28;20057;-91
2023/04/18 09:53:28;;;;;;;5.70;3.78;;;;;;;10.70;86.37;101258.94;5036910;28;20033;-85
2023/04/18 09:55:53;;;;;;;4.18;3.05;;;;;;;10.72;86.43;101254.59;5044179;28;20082;-85
2023/04/18 09:58:21;;;;;;;4.70;3.53;;;;;;;10.78;86.75;101249.97;5045583;28;20048;-89
2023/04/18 10:00:46;;;;;;;8.70;3.55;;;;;;;10.84;85.49;101252.34;5013080;28;20041;-89
2023/04/18 10:03:12;;;;;;;8.20;4.22;;;;;;;10.91;85.51;101255.50;5031202;28;20028;-89
2023/04/18 10:05:38;;;;;;;3.72;3.42;;;;;;;10.87;84.66;101251.38;5030290;28;20037;-91
2023/04/18 10:08:04;;;;;;;6.00;3.30;;;;;;;10.70;84.56;101227.91;5043693;28;20080;-92
2023/04/18 10:10:30;;;;;;;5.57;3.40;;;;;;;10.71;84.94;101230.41;5015547;28;20017;-90
2023/04/18 10:12:57;;;;;;;4.93;3.35;;;;;;;10.75;85.23;101228.56;5030658;28;20025;-85
2023/04/18 10:15:24;;;;;;;5.50;3.60;;;;;;;10.94;86.09;101265.75;5026203;28;20487;-94
2023/04/18 10:17:58;;;;;;;6.85;4.30;;;;;;;10.94;84.85;101260.56;5020445;28;20079;-90
2023/04/18 10:20:33;;;;;;;9.70;5.60;;;;;;;10.76;86.51;101225.91;5028272;28;20506;-90
2023/04/18 10:23:19;;;;;;;10.35;6.85;;;;;;;10.99;87.65;101253.44;5030730;28;20037;-92
2023/04/18 10:25:48;;;;;;;5.40;4.20;;;;;;;11.12;87.23;101259.84;5044710;28;20113;-91
2023/04/18 10:28:13;;;;;;;5.22;3.72;;;;;;;10.86;86.39;101222.06;5029798;28;20030;-94
2023/04/18 10:30:39;;;;;;;8.32;4.47;;;;;;;11.17;86.73;101257.88;5028645;28;20036;-90
2023/04/18 10:33:25;;;;;;;5.20;3.90;;;;;;;11.17;86.78;101259.63;5029335;28;20100;-86
2023/04/18 10:35:56;;;;;;;5.15;3.58;;;;;;;11.23;86.38;101255.97;5028305;28;20026;-88
2023/04/18 10:38:22;;;;;;;5.20;3.78;;;;;;;11.22;85.95;101254.28;5031138;28;20505;-84
2023/04/18 10:40:48;;;;;;;6.60;4.57;;;;;;;11.10;86.54;101238.31;5029315;28;20030;-85
2023/04/18 10:43:13;;;;;;;14.10;9.65;;;;;;;10.89;85.87;101202.97;5024456;28;20101;-85
2023/04/18 10:45:39;;;;;;;7.57;5.05;;;;;;;11.01;84.79;101220.59;5018864;28;20022;-84
2023/04/18 10:48:33;;;;;;;10.43;5.68;;;;;;;11.23;85.15;101261.13;5027795;28;20429;-86
2023/04/18 10:51:11;;;;;;;9.68;5.72;;;;;;;11.02;85.39;101232.63;5035549;28;20049;-89
2023/04/18 10:53:37;;;;;;;7.32;5.13;;;;;;;11.19;85.53;101256.06;5030028;28;20025;-86
2023/04/18 10:56:02;;;;;;;18.02;5.57;;;;;;;11.22;85.32;101249.09;5046067;28;20584;-88
2023/04/18 10:58:29;;;;;;;9.68;6.22;;;;;;;11.15;84.46;101238.97;5030724;28;20033;-86
2023/04/18 11:00:55;;;;;;;6.70;5.03;;;;;;;11.19;84.60;101240.53;5046638;28;20026;-95
2023/04/18 11:03:31;;;;;;;5.75;4.70;;;;;;;11.32;84.67;101245.22;5030900;28;20040;-93
2023/04/18 11:06:02;;;;;;;6.38;3.83;;;;;;;11.25;83.61;101251.56;5039504;28;20112;-90
2023/04/18 11:08:28;;;;;;;8.33;5.67;;;;;;;11.12;84.32;101241.72;5030445;28;20051;-93
2023/04/18 11:10:58;;;;;;;6.38;4.95;;;;;;;11.13;83.77;101248.56;5027238;28;20042;-90
2023/04/18 11:13:24;;;;;;;7.38;4.55;;;;;;;10.94;83.86;101224.34;5026226;28;20106;-88
2023/04/18 11:15:49;;;;;;;7.13;4.00;;;;;;;10.92;83.62;101228.75;5033066;28;20487;-87
2023/04/18 11:18:15;;;;;;;7.60;4.00;;;;;;;10.99;84.52;101244.84;5011968;28;20044;-90
2023/04/18 11:20:48;;;;;;;6.32;5.70;;;;;;;10.91;84.48;101238.25;5023628;28;20482;-89